createdAt,value
2022-12-18T00:01:07.319Z,25.33
2022-12-18T00:03:37.487Z,22.45
2022-12-18T00:06:07.204Z,26.38
2022-12-18T00:08:33.754Z,27.73
2022-12-18T00:11:18.181Z,24.02
2022-12-18T00:13:45.257Z,23.93
2022-12-18T00:16:14.838Z,31.30
2022-12-18T00:18:42.598Z,23.77
2022-12-18T00:21:11.388Z,26.70
2022-12-18T00:23:39.007Z,24.75
2022-12-18T00:26:08.580Z,25.50
2022-12-18T00:28:35.025Z,24.50
2022-12-18T00:31:06.444Z,27.38
2022-12-18T00:33:33.729Z,25.25
2022-12-18T00:36:10.073Z,23.83
2022-12-18T00:38:37.334Z,31.07
2022-12-18T00:41:04.778Z,23.77
2022-12-18T00:43:31.364Z,24.48
2022-12-18T00:45:58.055Z,30.33
2022-12-18T00:48:24.506Z,26.80
2022-12-18T00:50:51.449Z,28.70
2022-12-18T00:53:18.383Z,28.90
2022-12-18T00:55:46.287Z,29.92
2022-12-18T00:58:14.704Z,27.45
2022-12-18T01:00:41.885Z,24.83
2022-12-18T01:03:08.595Z,25.00
2022-12-18T01:05:35.356Z,29.30
2022-12-18T01:08:01.849Z,27.15
2022-12-18T01:10:28.311Z,27.27
2022-12-18T01:12:54.693Z,25.65
2022-12-18T01:15:21.512Z,26.33
2022-12-18T01:17:47.936Z,26.20
2022-12-18T01:20:15.074Z,31.73
2022-12-18T01:22:41.607Z,24.52
2022-12-18T01:25:09.679Z,28.33
2022-12-18T01:27:36.497Z,29.63
2022-12-18T01:30:04.099Z,25.00
2022-12-18T01:32:32.644Z,32.80
2022-12-18T01:34:59.321Z,26.77
2022-12-18T01:37:26.113Z,27.35
2022-12-18T01:39:55.391Z,26.33
2022-12-18T01:42:24.578Z,29.30
2022-12-18T01:45:03.778Z,34.20
2022-12-18T01:47:30.420Z,28.13
2022-12-18T01:50:00.548Z,27.80
2022-12-18T01:52:33.887Z,26.07
2022-12-18T01:55:02.663Z,26.52
2022-12-18T01:57:29.411Z,24.55
2022-12-18T02:00:01.888Z,25.83
2022-12-18T02:02:30.088Z,30.83
2022-12-18T02:04:56.858Z,27.40
2022-12-18T02:07:41.559Z,26.88
2022-12-18T02:10:19.833Z,31.30
2022-12-18T02:12:52.170Z,27.95
2022-12-18T02:15:32.718Z,28.95
2022-12-18T02:18:09.963Z,25.83
2022-12-18T02:20:42.623Z,28.15
2022-12-18T02:23:18.422Z,26.38
2022-12-18T02:26:07.158Z,28.17
2022-12-18T02:28:41.130Z,25.73
2022-12-18T02:31:11.545Z,23.60
2022-12-18T02:33:40.574Z,26.60
2022-12-18T02:36:09.698Z,27.38
2022-12-18T02:38:37.303Z,26.35
2022-12-18T02:41:05.431Z,27.02
2022-12-18T02:43:32.046Z,26.33
2022-12-18T02:46:01.788Z,20.52
2022-12-18T02:48:35.178Z,25.15
2022-12-18T02:51:09.324Z,22.88
2022-12-18T02:53:46.279Z,25.42
2022-12-18T02:56:18.622Z,27.33
2022-12-18T02:58:45.011Z,21.23
2022-12-18T03:01:25.906Z,27.70
2022-12-18T03:04:05.260Z,24.92
2022-12-18T03:06:38.615Z,28.58
2022-12-18T03:09:17.629Z,23.27
2022-12-18T03:12:08.646Z,24.08
2022-12-18T03:14:39.059Z,26.35
2022-12-18T03:17:11.920Z,21.63
2022-12-18T03:19:40.368Z,25.00
2022-12-18T03:22:08.603Z,26.87
2022-12-18T03:24:39.989Z,24.65
2022-12-18T03:27:12.849Z,26.17
2022-12-18T03:29:43.747Z,25.90
2022-12-18T03:32:24.683Z,20.17
2022-12-18T03:34:52.971Z,23.53
2022-12-18T03:37:19.599Z,21.10
2022-12-18T03:39:46.300Z,23.15
2022-12-18T03:42:31.034Z,18.55
2022-12-18T03:45:09.901Z,20.52
2022-12-18T03:47:45.754Z,23.73
2022-12-18T03:50:12.999Z,21.55
2022-12-18T03:52:50.024Z,23.50
2022-12-18T03:55:19.697Z,22.25
2022-12-18T03:57:48.585Z,23.38
2022-12-18T04:00:18.000Z,21.60
2022-12-18T04:02:49.460Z,20.95
2022-12-18T04:05:17.778Z,21.35
2022-12-18T04:07:46.158Z,24.30
2022-12-18T04:10:13.770Z,21.83
2022-12-18T04:12:40.319Z,19.33
2022-12-18T04:15:08.068Z,19.65
2022-12-18T04:17:34.568Z,26.17
2022-12-18T04:20:01.154Z,19.52
2022-12-18T04:22:27.761Z,20.55
2022-12-18T04:24:54.413Z,22.53
2022-12-18T04:27:21.154Z,16.92
2022-12-18T04:29:47.940Z,18.50
2022-12-18T04:32:14.555Z,19.42
2022-12-18T04:34:41.011Z,17.30
2022-12-18T04:37:07.638Z,20.73
2022-12-18T04:39:34.215Z,16.58
2022-12-18T04:42:00.858Z,20.38
2022-12-18T04:44:27.473Z,18.52
2022-12-18T04:46:54.046Z,17.45
2022-12-18T04:49:21.126Z,13.30
2022-12-18T04:51:48.071Z,19.88
2022-12-18T04:54:14.550Z,18.05
2022-12-18T04:56:41.225Z,17.55
2022-12-18T04:59:07.814Z,20.17
2022-12-18T05:01:35.167Z,16.97
2022-12-18T05:04:02.809Z,16.90
2022-12-18T05:06:29.744Z,16.77
2022-12-18T05:08:56.444Z,15.32
2022-12-18T05:11:25.389Z,14.27
2022-12-18T05:13:51.897Z,14.00
2022-12-18T05:16:20.819Z,18.80
2022-12-18T05:18:47.717Z,16.80
2022-12-18T05:21:14.430Z,15.95
2022-12-18T05:23:41.457Z,12.23
2022-12-18T05:26:08.873Z,13.30
2022-12-18T05:28:37.397Z,12.73
2022-12-18T05:31:05.944Z,13.55
2022-12-18T05:33:34.663Z,14.18
2022-12-18T05:36:03.027Z,12.52
2022-12-18T05:38:31.339Z,11.90
2022-12-18T05:40:58.669Z,11.07
2022-12-18T05:43:26.451Z,14.00
2022-12-18T05:45:54.047Z,11.35
2022-12-18T05:48:21.184Z,12.25
2022-12-18T05:50:49.168Z,13.30
2022-12-18T05:53:23.436Z,10.70
2022-12-18T05:55:49.950Z,12.15
2022-12-18T05:58:19.869Z,9.57
2022-12-18T06:00:47.020Z,12.40
2022-12-18T06:03:15.154Z,14.97
2022-12-18T06:05:48.334Z,10.95
2022-12-18T06:08:17.336Z,13.45
2022-12-18T06:10:52.289Z,11.23
2022-12-18T06:13:18.813Z,12.40
2022-12-18T06:15:45.447Z,11.53
2022-12-18T06:18:12.047Z,9.43
2022-12-18T06:20:40.713Z,10.95
2022-12-18T06:23:07.366Z,12.57
2022-12-18T06:25:37.949Z,11.90
2022-12-18T06:28:04.662Z,9.30
2022-12-18T06:30:31.825Z,11.75
2022-12-18T06:33:01.533Z,10.68
2022-12-18T06:35:28.137Z,11.77
2022-12-18T06:37:54.724Z,12.68
2022-12-18T06:40:21.539Z,12.37
2022-12-18T06:42:50.435Z,11.57
2022-12-18T06:45:17.537Z,11.52
2022-12-18T06:47:47.200Z,13.02
2022-12-18T06:50:14.103Z,10.05
2022-12-18T06:52:41.502Z,10.90
2022-12-18T06:55:10.405Z,10.63
2022-12-18T06:57:37.680Z,9.13
2022-12-18T07:00:06.359Z,9.27
2022-12-18T07:02:33.392Z,8.38
2022-12-18T07:05:00.269Z,9.27
2022-12-18T07:07:26.950Z,9.95
2022-12-18T07:09:53.542Z,11.80
2022-12-18T07:12:20.026Z,8.27
2022-12-18T07:14:46.728Z,10.98
2022-12-18T07:17:13.409Z,11.63
2022-12-18T07:19:40.033Z,11.95
2022-12-18T07:22:09.376Z,10.35
2022-12-18T07:24:36.123Z,10.10
2022-12-18T07:27:05.597Z,8.95
2022-12-18T07:29:36.787Z,12.80
2022-12-18T07:32:06.380Z,9.13
2022-12-18T07:34:33.108Z,11.55
2022-12-18T07:36:59.877Z,13.13
2022-12-18T07:39:26.805Z,11.73
2022-12-18T07:42:14.580Z,10.33
2022-12-18T07:44:41.177Z,10.55
2022-12-18T07:47:11.995Z,8.48
2022-12-18T07:49:39.116Z,12.82
2022-12-18T07:52:05.646Z,12.30
2022-12-18T07:54:32.188Z,10.07
2022-12-18T07:56:58.745Z,9.43
2022-12-18T07:59:25.350Z,9.63
2022-12-18T08:01:51.957Z,12.32
2022-12-18T08:04:18.728Z,11.82
2022-12-18T08:06:47.917Z,11.13
2022-12-18T08:09:20.284Z,10.75
2022-12-18T08:11:46.901Z,11.10
2022-12-18T08:14:13.536Z,12.63
2022-12-18T08:16:40.518Z,11.35
2022-12-18T08:19:07.099Z,12.83
2022-12-18T08:21:33.706Z,10.43
2022-12-18T08:24:02.396Z,10.10
2022-12-18T08:26:34.736Z,11.75
2022-12-18T08:29:02.089Z,12.50
2022-12-18T08:31:30.776Z,10.40
2022-12-18T08:33:59.939Z,16.58
2022-12-18T08:36:29.280Z,9.32
2022-12-18T08:39:01.282Z,10.15
2022-12-18T08:41:27.884Z,10.30
2022-12-18T08:44:14.159Z,8.37
2022-12-18T08:46:43.172Z,10.63
2022-12-18T08:49:11.333Z,11.25
2022-12-18T08:51:38.747Z,11.15
2022-12-18T08:54:06.849Z,10.88
2022-12-18T08:56:36.185Z,8.90
2022-12-18T08:59:02.980Z,8.20
2022-12-18T09:01:29.760Z,8.40
2022-12-18T09:03:58.085Z,11.13
2022-12-18T09:06:25.231Z,7.60
2022-12-18T09:08:51.882Z,9.07
2022-12-18T09:11:26.272Z,10.00
2022-12-18T09:13:53.923Z,9.82
2022-12-18T09:16:25.021Z,11.15
2022-12-18T09:19:08.305Z,8.00
2022-12-18T09:21:43.364Z,9.30
2022-12-18T09:24:14.470Z,7.47
2022-12-18T09:26:47.672Z,7.70
2022-12-18T09:29:15.665Z,8.05
2022-12-18T09:31:43.465Z,11.55
2022-12-18T09:34:10.036Z,10.07
2022-12-18T09:36:38.767Z,11.60
2022-12-18T09:39:08.581Z,7.88
2022-12-18T09:41:57.248Z,10.07
2022-12-18T09:44:34.402Z,10.20
2022-12-18T09:47:41.383Z,6.90
2022-12-18T09:50:31.709Z,8.77
2022-12-18T09:53:03.955Z,8.95
2022-12-18T09:55:38.362Z,8.65
2022-12-18T09:58:16.729Z,7.32
2022-12-18T10:00:43.865Z,9.47
2022-12-18T10:03:15.260Z,11.52
2022-12-18T10:06:03.015Z,9.25
2022-12-18T10:08:53.001Z,8.68
2022-12-18T10:11:25.874Z,9.50
2022-12-18T10:14:04.840Z,7.60
2022-12-18T10:16:44.236Z,6.70
2022-12-18T10:19:29.397Z,8.45
2022-12-18T10:22:26.249Z,8.52
2022-12-18T10:25:25.853Z,8.82
2022-12-18T10:28:14.007Z,8.03
2022-12-18T10:30:42.474Z,7.40
2022-12-18T10:33:22.298Z,6.60
2022-12-18T10:35:56.897Z,7.25
2022-12-18T10:38:24.919Z,6.68
2022-12-18T10:40:57.504Z,6.57
2022-12-18T10:43:38.393Z,8.40
2022-12-18T10:46:11.036Z,10.40
2022-12-18T10:48:47.747Z,8.00
2022-12-18T10:51:31.718Z,7.32
2022-12-18T10:54:23.174Z,6.80
2022-12-18T10:56:52.839Z,7.90
2022-12-18T10:59:19.855Z,9.18
2022-12-18T11:02:02.079Z,6.53
2022-12-18T11:04:32.189Z,6.15
2022-12-18T11:07:11.726Z,7.07
2022-12-18T11:09:42.767Z,6.20
2022-12-18T11:12:26.347Z,9.73
2022-12-18T11:14:54.827Z,6.85
2022-12-18T11:17:34.688Z,8.27
2022-12-18T11:20:08.011Z,6.13
2022-12-18T11:22:39.141Z,8.70
2022-12-18T11:25:35.456Z,6.97
2022-12-18T11:28:26.639Z,7.20
2022-12-18T11:31:24.143Z,6.20
2022-12-18T11:34:31.305Z,8.90
2022-12-18T11:37:05.418Z,5.68
2022-12-18T11:39:43.959Z,7.10
2022-12-18T11:42:27.641Z,6.10
2022-12-18T11:45:09.784Z,5.90
2022-12-18T11:48:16.052Z,6.13
2022-12-18T11:50:56.526Z,5.68
2022-12-18T11:53:27.367Z,8.65
2022-12-18T11:56:25.921Z,6.88
2022-12-18T11:59:15.694Z,6.28
2022-12-18T12:02:13.309Z,6.33
2022-12-18T12:04:49.554Z,6.93
2022-12-18T12:07:43.897Z,8.32
2022-12-18T12:10:10.332Z,7.07
2022-12-18T12:12:58.663Z,6.47
2022-12-18T12:15:50.667Z,6.37
2022-12-18T12:18:42.775Z,8.40
2022-12-18T12:21:40.382Z,8.55
2022-12-18T12:24:32.555Z,6.07
2022-12-18T12:27:37.023Z,7.20
2022-12-18T12:30:10.274Z,6.20
2022-12-18T12:33:00.206Z,11.30
2022-12-18T12:35:32.855Z,8.18
2022-12-18T12:38:08.977Z,6.45
2022-12-18T12:40:58.833Z,7.75
2022-12-18T12:43:52.806Z,7.70
2022-12-18T12:46:25.828Z,7.93
2022-12-18T12:49:10.777Z,6.88
2022-12-18T12:51:44.651Z,7.05
2022-12-18T12:54:18.736Z,8.00
2022-12-18T12:57:05.001Z,5.67
2022-12-18T12:59:50.527Z,7.50
2022-12-18T13:02:36.975Z,7.07
2022-12-18T13:05:12.938Z,5.82
2022-12-18T13:07:47.570Z,9.85
2022-12-18T13:10:28.685Z,7.97
2022-12-18T13:13:09.364Z,9.55
2022-12-18T13:15:48.586Z,7.63
2022-12-18T13:18:19.137Z,9.02
2022-12-18T13:20:53.657Z,7.43
2022-12-18T13:23:27.045Z,5.57
2022-12-18T13:26:26.438Z,7.18
2022-12-18T13:28:59.795Z,7.28
2022-12-18T13:31:58.081Z,7.97
2022-12-18T13:34:31.774Z,6.57
2022-12-18T13:37:40.578Z,7.00
2022-12-18T13:40:41.128Z,7.93
2022-12-18T13:43:19.998Z,7.38
2022-12-18T13:46:00.212Z,8.65
2022-12-18T13:48:28.695Z,7.50
2022-12-18T13:51:04.432Z,8.83
2022-12-18T13:53:35.306Z,6.22
2022-12-18T13:56:03.294Z,6.47
2022-12-18T13:58:30.189Z,9.35
2022-12-18T14:01:00.527Z,6.68
2022-12-18T14:03:29.606Z,8.37
2022-12-18T14:06:01.575Z,7.97
2022-12-18T14:08:34.881Z,6.50
2022-12-18T14:11:05.102Z,11.15
2022-12-18T14:13:36.670Z,8.13
2022-12-18T14:16:06.041Z,8.57
2022-12-18T14:18:57.106Z,7.40
2022-12-18T14:21:35.049Z,11.07
2022-12-18T14:24:20.036Z,6.78
2022-12-18T14:26:48.406Z,8.65
2022-12-18T14:29:32.918Z,7.07
2022-12-18T14:32:35.636Z,9.45
2022-12-18T14:35:14.362Z,8.57
2022-12-18T14:37:41.030Z,9.00
2022-12-18T14:40:14.219Z,9.43
2022-12-18T14:42:40.970Z,8.57
2022-12-18T14:45:41.499Z,8.25
2022-12-18T14:48:10.500Z,10.00
2022-12-18T14:50:39.347Z,7.00
2022-12-18T14:53:24.119Z,7.07
2022-12-18T14:55:51.804Z,7.03
2022-12-18T14:58:19.666Z,7.88
2022-12-18T15:00:46.536Z,8.02
2022-12-18T15:03:20.422Z,8.27
2022-12-18T15:05:49.970Z,9.45
2022-12-18T15:08:33.979Z,7.53
2022-12-18T15:11:01.287Z,6.63
2022-12-18T15:13:31.515Z,11.85
2022-12-18T15:16:04.150Z,7.70
2022-12-18T15:18:35.084Z,10.10
2022-12-18T15:21:10.500Z,10.67
2022-12-18T15:23:50.478Z,7.53
2022-12-18T15:26:19.671Z,11.75
2022-12-18T15:28:52.878Z,10.20
2022-12-18T15:31:31.237Z,10.60
2022-12-18T15:34:01.945Z,9.43
2022-12-18T15:36:37.915Z,12.30
2022-12-18T15:39:06.817Z,8.75
2022-12-18T15:41:36.148Z,9.35
2022-12-18T15:44:04.516Z,7.70
2022-12-18T15:46:34.354Z,8.07
2022-12-18T15:49:02.996Z,11.50
2022-12-18T15:51:36.424Z,9.27
2022-12-18T15:54:05.924Z,9.60
2022-12-18T15:56:53.962Z,12.02
2022-12-18T15:59:32.677Z,10.53
2022-12-18T16:01:59.340Z,9.75
2022-12-18T16:04:29.692Z,12.30
2022-12-18T16:08:06.395Z,10.38
2022-12-18T16:09:52.746Z,9.65
2022-12-18T16:12:27.742Z,11.03
2022-12-18T16:14:54.286Z,11.20
2022-12-18T16:17:23.624Z,10.75
2022-12-18T16:19:50.502Z,11.75
2022-12-18T16:22:23.952Z,10.90
2022-12-18T16:24:54.941Z,8.60
2022-12-18T16:27:22.828Z,11.25
2022-12-18T16:29:49.600Z,11.75
2022-12-18T16:32:21.527Z,11.15
2022-12-18T16:34:48.528Z,10.52
2022-12-18T16:37:17.960Z,10.33
2022-12-18T16:39:54.066Z,10.77
2022-12-18T16:42:21.167Z,11.77
2022-12-18T16:44:52.618Z,11.57
2022-12-18T16:47:20.084Z,14.77
2022-12-18T16:49:52.968Z,12.73
2022-12-18T16:52:24.108Z,12.43
2022-12-18T16:54:53.709Z,9.82
2022-12-18T16:57:24.086Z,12.23
2022-12-18T16:59:52.432Z,13.07
2022-12-18T17:02:24.649Z,10.00
2022-12-18T17:04:55.014Z,11.55
2022-12-18T17:07:21.542Z,13.57
2022-12-18T17:09:51.979Z,11.25
2022-12-18T17:12:18.500Z,15.13
2022-12-18T17:14:47.495Z,10.93
2022-12-18T17:17:21.777Z,10.30
2022-12-18T17:19:49.282Z,12.20
2022-12-18T17:22:15.872Z,11.15
2022-12-18T17:24:42.479Z,11.90
2022-12-18T17:27:09.021Z,14.27
2022-12-18T17:29:43.899Z,11.43
2022-12-18T17:32:13.776Z,14.43
2022-12-18T17:34:40.846Z,11.90
2022-12-18T17:37:08.975Z,12.95
2022-12-18T17:39:35.696Z,11.90
2022-12-18T17:42:02.316Z,17.30
2022-12-18T17:44:28.832Z,10.40
2022-12-18T17:46:58.500Z,13.90
2022-12-18T17:49:24.971Z,12.65
2022-12-18T17:51:51.643Z,11.90
2022-12-18T17:54:18.074Z,11.73
2022-12-18T17:56:44.693Z,15.63
2022-12-18T17:59:11.382Z,15.02
2022-12-18T18:01:47.383Z,11.70
2022-12-18T18:04:15.621Z,13.40
2022-12-18T18:06:42.319Z,10.68
2022-12-18T18:09:16.158Z,14.85
2022-12-18T18:12:02.925Z,13.82
2022-12-18T18:14:29.798Z,14.00
2022-12-18T18:16:56.401Z,9.80
2022-12-18T18:19:25.510Z,14.73
2022-12-18T18:21:53.825Z,12.80
2022-12-18T18:24:26.115Z,12.10
2022-12-18T18:26:57.819Z,15.70
2022-12-18T18:29:26.993Z,13.60
2022-12-18T18:31:57.235Z,16.65
2022-12-18T18:34:30.270Z,12.18
2022-12-18T18:37:01.186Z,15.18
2022-12-18T18:39:28.201Z,15.23
2022-12-18T18:41:55.006Z,16.17
2022-12-18T18:44:25.611Z,12.05
2022-12-18T18:46:56.720Z,13.00
2022-12-18T18:49:27.557Z,16.80
2022-12-18T18:51:55.265Z,15.13
2022-12-18T18:54:24.603Z,12.80
2022-12-18T18:57:22.660Z,14.52
2022-12-18T18:59:37.990Z,11.93
2022-12-18T19:02:07.676Z,16.02
2022-12-18T19:04:34.569Z,13.57
2022-12-18T19:07:01.678Z,13.40
2022-12-18T19:09:28.812Z,12.48
2022-12-18T19:14:56.488Z,15.13
2022-12-18T19:17:29.564Z,15.95
2022-12-18T19:19:59.917Z,17.77
2022-12-18T19:22:26.386Z,13.43
2022-12-18T19:24:52.836Z,13.13
2022-12-18T19:27:19.299Z,16.58
2022-12-18T19:29:45.734Z,14.52
2022-12-18T19:32:12.408Z,14.13
2022-12-18T19:34:39.714Z,15.05
2022-12-18T19:37:06.418Z,13.25
2022-12-18T19:39:33.210Z,14.57
2022-12-18T19:41:59.788Z,11.35
2022-12-18T19:44:26.885Z,17.37
2022-12-18T19:46:53.511Z,12.45
2022-12-18T19:49:20.020Z,13.32
2022-12-18T19:51:47.676Z,13.60
2022-12-18T19:54:17.734Z,11.52
2022-12-18T19:56:45.739Z,16.80
2022-12-18T19:59:12.835Z,15.27
2022-12-18T20:01:39.933Z,15.00
2022-12-18T20:04:07.009Z,13.35
2022-12-18T20:06:55.625Z,15.80
2022-12-18T20:09:24.455Z,15.43
2022-12-18T20:11:51.693Z,15.20
2022-12-18T20:14:22.312Z,15.93
2022-12-18T20:16:50.955Z,13.10
2022-12-18T20:19:18.229Z,12.65
2022-12-18T20:21:45.722Z,13.37
2022-12-18T20:24:13.038Z,14.02
2022-12-18T20:26:40.590Z,12.65
2022-12-18T20:29:07.233Z,13.50
2022-12-18T20:31:36.721Z,12.77
2022-12-18T20:34:06.040Z,13.73
2022-12-18T20:36:34.258Z,17.27
2022-12-18T20:39:06.525Z,16.67
2022-12-18T20:41:38.099Z,15.15
2022-12-18T20:44:22.531Z,16.05
2022-12-18T20:47:05.747Z,12.83
2022-12-18T20:49:35.754Z,13.55
2022-12-18T20:52:04.566Z,11.43
2022-12-18T20:54:31.241Z,12.55
2022-12-18T20:57:01.508Z,15.25
2022-12-18T20:59:28.231Z,15.40
2022-12-18T21:01:55.458Z,17.55
2022-12-18T21:04:22.916Z,18.35
2022-12-18T21:06:59.239Z,15.90
2022-12-18T21:09:37.514Z,19.67
2022-12-18T21:12:43.943Z,14.57
2022-12-18T21:15:18.073Z,15.20
2022-12-18T21:17:51.602Z,17.88
2022-12-18T21:20:18.992Z,11.93
2022-12-18T21:22:48.139Z,17.70
2022-12-18T21:25:16.991Z,12.40
2022-12-18T21:27:45.517Z,16.20
2022-12-18T21:30:18.937Z,14.52
2022-12-18T21:32:48.805Z,14.43
2022-12-18T21:35:22.974Z,13.13
2022-12-18T21:37:51.908Z,17.53
2022-12-18T21:40:25.565Z,15.27
2022-12-18T21:43:13.375Z,14.27
2022-12-18T21:45:46.837Z,15.85
2022-12-18T21:50:59.782Z,16.70
2022-12-18T21:53:26.446Z,13.55
2022-12-18T21:56:02.071Z,17.52
2022-12-18T21:58:30.863Z,13.63
2022-12-18T22:01:12.928Z,16.50
2022-12-18T22:03:40.338Z,12.83
2022-12-18T22:06:16.770Z,15.07
2022-12-18T22:08:44.167Z,14.40
2022-12-18T22:11:17.058Z,15.10
2022-12-18T22:13:48.206Z,13.55
2022-12-18T22:16:17.497Z,14.83
2022-12-18T22:18:48.163Z,14.73
2022-12-18T22:21:30.348Z,15.95
2022-12-18T22:24:07.825Z,14.13
2022-12-18T22:26:40.893Z,13.77
2022-12-18T22:29:29.173Z,13.77
2022-12-18T22:32:02.173Z,15.25
2022-12-18T22:34:29.219Z,15.27
2022-12-18T22:36:58.285Z,17.02
2022-12-18T22:39:29.365Z,16.42
2022-12-18T22:42:10.255Z,14.63
2022-12-18T22:44:36.814Z,15.32
2022-12-18T22:47:07.044Z,14.60
2022-12-18T22:49:35.335Z,12.65
2022-12-18T22:52:03.508Z,16.35
2022-12-18T22:54:31.183Z,14.67
2022-12-18T22:57:03.168Z,16.63
2022-12-18T22:59:29.937Z,14.88
2022-12-18T23:01:59.596Z,15.45
2022-12-18T23:04:36.334Z,20.35
2022-12-18T23:07:06.776Z,15.63
2022-12-18T23:09:33.911Z,14.30
2022-12-18T23:12:01.341Z,17.00
2022-12-18T23:14:31.941Z,16.67
2022-12-18T23:17:10.307Z,15.27
2022-12-18T23:19:45.503Z,16.23
2022-12-18T23:22:24.596Z,14.43
2022-12-18T23:24:51.351Z,14.02
2022-12-18T23:27:21.149Z,16.50
2022-12-18T23:29:48.438Z,14.55
2022-12-18T23:32:25.155Z,16.77
2022-12-18T23:34:51.851Z,18.02
2022-12-18T23:37:49.950Z,15.77
2022-12-18T23:40:05.807Z,16.33
2022-12-18T23:42:35.312Z,17.77
2022-12-18T23:45:04.498Z,16.87
2022-12-18T23:47:51.074Z,14.15
2022-12-18T23:50:18.026Z,13.88
2022-12-18T23:52:44.588Z,16.60
2022-12-18T23:55:13.382Z,17.98
2022-12-18T23:57:39.990Z,15.93
